Dernières infos :  

13/08/2017  Mise à jour des tableaux d'analyses décadaires
02/08/2017 Mise en ligne de la synthèse climatologique de Juillet 2017 : 
CLIQUEZ ICI
01/08/2017  Mise à jour des tableaux d'analyses décadaires, mensuelles et annuelles : rubrique climatologie

31/07/2017 Vidéo du violent orage de dimanche soir 30/07 : CLIQUEZ ICI   

Si l'entête du tableau ne s'affiche pas correctement, => actualisez la page (F5 avec Internet Explorer, Chrome...).
Utilisez l'ascenseur sur la droite des lignes du tableau pour faire défiler verticalement les jours du mois.

TABLEAU DES DONNEES COMPLETES NOAA DE MARS 2015

DATE TEMPERATURE
sous abri
TEMPARATURE 
au sol
VENT  et  Indice de Refroidissement Eolien  PRECIPITATIONS (en mm/m2)
et Intensité
PRESSION ATMOSPHERIQUE (en hPa) HUMIDITE de l'AIR RADIATIONS SOLAIRES (en W/m2)
Mini Moy. Maxi Mini Moy. Maxi Moyen Rafale I.R.E.
Minii
Précip. jour Cumul mois Intensité Maxi Mini Moy. Maxi Mini Moy. Maxi Pic maxi du jour Total jour
01/03/2015 3.6° 7.7° 10.6° 2.8° 7.2° 11.1° 7.2km/h dir S 35.4km/h dir S 2.2° 5.4 5.4 3.4mm/h 1012.6 1014.6 1017.3 72% 87.6% 94% 411 14 010
02/03/2015 6.3° 10.2° 14° 3.3° 9.8° 18.9° 4km/h dir O 35.4km/h dir O 6.3° 4.2 9.6 15mm/h 1011.3 1016.3 1023.6 59% 82% 95% 844 27 006
03/03/2015 2.3° 8.4° 14.1° -0.6° 8.2° 19.4° 0.6km/h dir O 16.1km/h dir OSO 2.3° 0 9.6 1022.5 1023.6 1025 47% 75% 96% 733 50 159
04/03/2015 3.3° 9.3° 2.2° 6.2° 15° 7.2km/h dir N 40.2km/h dir NNE -0.6° 4.2 13.8 1.8mm/h 1024.9 1028 1032.2 60% 80% 92% 918 38 145
05/03/2015 1.2° 4.9° 9.3° 12.8° 16.6km/h dir N 45.1km/h dir NNO -3.1° 0 13.8 1032.1 1033.9 1035.1 51% 73.1% 90% 687 52 458
06/03/2015 0.5° 5.6° 12.3° -2.2° 5.4° 15.6° 9.2km/h dir N 30.6km/h dir N -3.7° 0 13.8 1032.3 1034.3 1036 45% 68.3% 84% 671 52 604
07/03/2015 -2.9° 3.9° 12.1° -5° 3.3° 16.1° 0.6km/h dir NO 17.7km/h dir NO -2.9° 0 13.8 1026.9 1030.5 1032.9 54% 78.4% 94% 664 47 131
08/03/2015 -1.3° 5.6° 14° -4.4° 4.9° 16.7° 0.2km/h dir ONO 11.3km/h dir O -1.3° 0.2 14 1022.9 1024.7 1026.8 51% 78.2% 95% 664 47 968
09/03/2015 0.5° 7.3° 14.7° -1.7° 6.6° 20° 1.1km/h dir NO 16.1km/h dir NNO 0.5° 0 14 1022.8 1024.1 1025.2 57% 80.2% 96% 756 44 502
10/03/2015 8.1° 15.8° -2.2° 7.7° 18.9° 3.1km/h dir NNO 24.1km/h dir NO 0 14 1024.8 1025.9 1027.5 59% 81.2% 96% 687 47 398
11/03/2015 4.8° 10.1° 16.1° 9.6° 18.9° 3.4km/h dir NNO 25.7km/h dir NNO 4.8° 0 14 1024 1024.9 1025.8 56% 81.3% 94% 803 41 037
12/03/2015 -1.3° 6.2° 15.7° -4.4° 5.2° 17.8° 2.1km/h dir NNO 25.7km/h dir N -1.2° 0.2 14.2 1020.1 1022.9 1025.1 33% 71% 95% 708 56 448
13/03/2015 -2.1° 5.8° 12.9° -5° 5.4° 16.1° 0.6km/h dir O 19.3km/h dir SO -2.1° 0 14.2 1017.5 1019.1 1020.6 49% 73.7% 92% 759 47 101
14/03/2015 11.8° 2.2° 7.8° 15° 1km/h dir NO 17.7km/h dir NO 5.1° 0.4 14.6 1017.9 1018.9 1019.7 60% 79.9% 93% 805 30 056
15/03/2015 -0.8° 5.7° 11.2° -3.3° 5.3° 13.9° 2.6km/h dir NNO 25.7km/h dir NNO -0.8° 0 14.6 1016.1 1018.3 1020.1 63% 79.1% 93% 694 37 921
16/03/2015 2.6° 8.5° 15.5° 0.6° 18.9° 0.8km/h dir NNO 14.5km/h dir OSO 2.6° 0 14.6 1017.4 1019.8 1020.9 47% 73.8% 93% 731 50 565
17/03/2015 1.8° 8.6° 17.6° -1.1° 8.1° 20.6° 0.6km/h dir OSO 12.9km/h dir OSO 1.8° 0 14.6 1019.8 1021.1 1022.8 44% 75% 93% 849 48 837
18/03/2015 3.7° 11.5° 19.2° 0.6° 10.7° 22.8° 1.8km/h dir SSE 20.9km/h dir NNE 3.7° 0 14.6 1020.5 1022.5 1024.4 43% 70.3% 93% 700 56 459
19/03/2015 3.3° 9.8° 16.9° 9.6° 20° 5.1km/h dir N 29km/h dir N 3.3° 0 14.6 1019.8 1021.4 1023 61% 79.1% 93% 696 52 178
20/03/2015 3.6° 8.6° 13.2° 1.1° 8.3° 16.7° 1.3km/h dir NO 16.1km/h dir NO 3.6° 0 14.6 1018.2 1020 1021.8 78% 87.4% 95% 726 31 194
21/03/2015 5.9° 8.4° 10.6° 4.4° 7.9° 11.7° 3.5km/h dir N 35.4km/h dir N 3.6° 3.4 18 1.8mm/h 1015.6 1016.9 1018.4 86% 92.3% 95% 200 11 248
22/03/2015 3.3° 11.1° 1.1° 6.8° 14.4° 7.1km/h dir N 32.2km/h dir NNE -0.2° 0 18 1012.9 1014.9 1017.7 62% 81.4% 92% 819 34 598
23/03/2015 -0.1° 8.1° 17.1° -1.7° 7.6° 20° 0.5km/h dir ONO 9.7km/h dir NO -0.1° 0 18 1010 1014.3 1018.1 53% 78.9% 96% 737 60 227
24/03/2015 3.4° 10.8° 18.8° 0.6° 10.5° 21.7° 1.6km/h dir SSE 22.5km/h dir S 3.2° 0.2 18.2 1003.7 1006.9 1010 50% 79.5% 95% 951 43 515
25/03/2015 3.4° 5.4° 10.5° 2.8° 10° 6.3km/h dir NNO 25.7km/h dir NNO 0.6° 14 32.2 6.4mm/h 1004 1006.9 1010.2 88% 92.6% 94% 241 8 742
26/03/2015 7.6° 11.4° 4.4° 16.1° 1.9km/h dir NNO 19.3km/h dir NO 3.2° 0 32.2 1010.3 1012.5 1015.5 48% 75.8% 92% 863 44 921
27/03/2015 3.4° 8.8° 13.6° 0.6° 8.7° 17.8° 2.6km/h dir NO 22.5km/h dir NO 3.4° 0.4 32.6 1015.7 1021.2 1025.3 48% 76.3% 95% 986 51 125
28/03/2015 -0.2° 11.6° -2.2° 6.8° 13.3° 1.3km/h dir S 16.1km/h dir SSE -0.2° 0 32.6 1021 1023.2 1025.3 64% 84.5% 96% 413 25 325
29/03/2015 8.4° 10.4° 12.4° 7.2° 10° 12.2° 3.1km/h dir S 32.2km/h dir S 8.4° 13.6 46.2 5.2mm/h 1013.6 1017.7 1021.8 85% 91.6% 95% 251 9 966
30/03/2015 10.2° 11.9° 14.8° 9.4° 11.5° 17.2° 4km/h dir S 32.2km/h dir OSO 17.4 63.6 11.2mm/h 1011 1014.8 1019.4 81% 91.8% 96% 619 18 608
31/03/2015 8.7° 13.1° 15.9° 5.6° 12.7° 17.8° 5.3km/h dir S 40.2km/h dir OSO 8.7° 0 63.6 1016.1 1018.7 1022.6 60% 78.6% 96% 708 28 438

RETOUR ACCUEIL


Date de création : 01/04/2015 : 20:05
Dernière modification : 01/06/2015 : 19:55
Catégorie : ARCHIVES 2002 à 2016 - ANNEES 2010 à 2019 - ANNEE 2015 - MARS 2015
Page lue 1644 fois


Réactions à cet article

Personne n'a encore laissé de commentaire.
Soyez donc le premier !